createdAt,value
2019-05-21T00:01:58.491Z,524.10
2019-05-21T00:07:03.524Z,428.00
2019-05-21T00:12:08.586Z,444.00
2019-05-21T00:17:14.210Z,381.35
2019-05-21T00:22:19.914Z,313.10
2019-05-21T00:27:24.959Z,266.30
2019-05-21T00:32:30.105Z,192.15
2019-05-21T00:37:35.369Z,159.30
2019-05-21T00:42:40.417Z,122.50
2019-05-21T00:47:45.477Z,97.50
2019-05-21T00:52:50.539Z,69.40
2019-05-21T00:57:55.678Z,50.30
2019-05-21T01:03:00.707Z,43.70
2019-05-21T01:08:05.753Z,25.55
2019-05-21T01:13:10.805Z,23.50
2019-05-21T01:18:15.867Z,18.80
2019-05-21T01:23:20.902Z,17.83
2019-05-21T01:28:25.977Z,17.75
2019-05-21T01:33:31.000Z,18.10
2019-05-21T01:38:36.045Z,17.15
2019-05-21T01:43:41.093Z,19.10
2019-05-21T01:48:46.171Z,20.00
2019-05-21T01:53:51.194Z,17.80
2019-05-21T01:58:56.144Z,19.30
2019-05-21T02:04:01.237Z,19.23
2019-05-21T02:09:06.247Z,19.30
2019-05-21T02:14:11.302Z,19.40
2019-05-21T02:19:16.354Z,19.10
2019-05-21T02:24:21.392Z,20.40
2019-05-21T02:29:26.443Z,19.13
2019-05-21T02:34:31.493Z,19.60
2019-05-21T02:39:36.556Z,18.53
2019-05-21T02:44:41.592Z,19.40
2019-05-21T02:49:46.632Z,18.37
2019-05-21T02:54:51.697Z,19.05
2019-05-21T02:59:58.274Z,17.40
2019-05-21T03:05:03.338Z,18.35
2019-05-21T03:10:08.273Z,17.75
2019-05-21T03:15:13.205Z,20.00
2019-05-21T03:20:18.157Z,18.85
2019-05-21T03:25:23.121Z,19.95
2019-05-21T03:30:28.167Z,19.75
2019-05-21T03:35:33.327Z,19.30
2019-05-21T03:45:42.997Z,18.80
2019-05-21T03:50:47.937Z,19.00
2019-05-21T04:16:26.992Z,19.07
2019-05-21T04:21:32.330Z,19.70
2019-05-21T04:31:43.481Z,19.50
2019-05-21T04:36:48.666Z,19.05
2019-05-21T04:41:53.704Z,18.55
2019-05-21T04:46:58.761Z,18.20
2019-05-21T04:52:04.127Z,19.30
2019-05-21T04:57:09.485Z,19.20
2019-05-21T05:02:35.493Z,17.95
2019-05-21T05:07:40.661Z,18.40
2019-05-21T05:12:45.694Z,17.73
2019-05-21T05:17:50.750Z,17.00
2019-05-21T05:22:55.812Z,17.00
2019-05-21T05:28:00.952Z,18.00
2019-05-21T05:33:05.989Z,17.40
2019-05-21T05:38:11.069Z,17.50
2019-05-21T05:43:16.104Z,18.35
2019-05-21T05:48:21.245Z,18.90
2019-05-21T05:53:26.296Z,20.10
2019-05-21T05:58:31.340Z,18.05
2019-05-21T06:03:36.362Z,18.20
2019-05-21T06:08:41.454Z,17.90
2019-05-21T06:13:46.504Z,18.05
2019-05-21T06:18:51.540Z,17.90
2019-05-21T06:23:56.699Z,18.90
2019-05-21T06:29:01.768Z,18.90
2019-05-21T06:34:06.795Z,17.40
2019-05-21T06:39:11.883Z,17.70
2019-05-21T06:44:16.988Z,18.10
2019-05-21T06:49:22.061Z,17.60
2019-05-21T06:54:27.119Z,17.20
2019-05-21T06:59:32.254Z,16.30
2019-05-21T07:04:37.303Z,16.90
2019-05-21T07:09:42.359Z,16.05
2019-05-21T07:14:47.398Z,16.90
2019-05-21T07:19:54.305Z,16.70
2019-05-21T07:24:59.343Z,23.80
2019-05-21T07:30:04.399Z,216.90
2019-05-21T07:35:09.470Z,163.60
2019-05-21T07:40:14.472Z,250.80
2019-05-21T07:45:19.545Z,581.65
2019-05-21T07:50:24.584Z,514.60
2019-05-21T07:55:29.643Z,341.05
2019-05-21T08:00:34.680Z,352.55
2019-05-21T08:05:39.730Z,328.70
2019-05-21T08:10:44.769Z,298.50
2019-05-21T08:15:49.845Z,257.45
2019-05-21T08:20:54.854Z,191.50
2019-05-21T08:25:59.922Z,148.40
2019-05-21T08:31:04.977Z,110.50
2019-05-21T08:36:10.005Z,92.80
2019-05-21T08:41:15.125Z,81.85
2019-05-21T08:46:20.099Z,59.80
2019-05-21T08:51:25.162Z,47.70
2019-05-21T08:56:30.225Z,32.90
2019-05-21T09:01:35.269Z,29.45
2019-05-21T09:06:40.313Z,20.55
2019-05-21T09:11:45.364Z,18.45
2019-05-21T09:16:50.587Z,17.05
2019-05-21T09:21:55.692Z,15.60
2019-05-21T09:27:00.744Z,17.90
2019-05-21T09:32:05.771Z,16.70
2019-05-21T09:37:19.198Z,15.25
2019-05-21T09:42:17.598Z,15.10
2019-05-21T09:47:22.661Z,15.90
2019-05-21T09:52:27.705Z,16.10
2019-05-21T09:57:34.396Z,15.70
2019-05-21T10:02:39.643Z,14.70
2019-05-21T10:07:44.698Z,14.75
2019-05-21T10:12:49.750Z,14.30
2019-05-21T10:17:54.807Z,14.55
2019-05-21T10:22:59.841Z,14.70
2019-05-21T10:28:04.879Z,15.60
2019-05-21T10:33:09.951Z,15.70
2019-05-21T10:38:15.001Z,15.60
2019-05-21T10:43:20.049Z,15.00
2019-05-21T10:48:25.079Z,15.20
2019-05-21T10:53:30.155Z,15.35
2019-05-21T10:58:35.327Z,14.80
2019-05-21T11:04:14.868Z,14.70
2019-05-21T11:09:21.954Z,15.60
2019-05-21T11:14:27.016Z,14.30
2019-05-21T11:19:32.046Z,15.60
2019-05-21T11:24:37.113Z,17.10
2019-05-21T11:29:42.138Z,14.80
2019-05-21T11:34:50.032Z,15.90
2019-05-21T11:39:53.990Z,16.05
2019-05-21T11:44:59.041Z,16.10
2019-05-21T11:50:04.086Z,14.20
2019-05-21T11:55:09.182Z,13.20
2019-05-21T12:00:14.797Z,13.55
2019-05-21T12:05:19.936Z,15.90
2019-05-21T12:10:25.920Z,16.10
2019-05-21T12:15:30.990Z,16.20
2019-05-21T12:20:37.528Z,16.50
2019-05-21T12:25:42.957Z,15.10
2019-05-21T12:30:48.066Z,15.90
2019-05-21T12:35:53.101Z,15.60
2019-05-21T12:40:58.154Z,14.15
2019-05-21T12:46:03.249Z,13.80
2019-05-21T12:51:08.370Z,15.00
2019-05-21T12:56:13.415Z,14.85
2019-05-21T13:01:18.468Z,14.25
2019-05-21T13:06:23.526Z,15.70
2019-05-21T13:11:28.566Z,15.35
2019-05-21T13:16:33.612Z,16.05
2019-05-21T13:21:39.097Z,13.95
2019-05-21T13:26:44.354Z,14.70
2019-05-21T13:31:49.486Z,52.50
2019-05-21T13:36:54.508Z,43.55
2019-05-21T13:41:59.590Z,59.00
2019-05-21T13:47:04.719Z,137.20
2019-05-21T13:52:09.800Z,78.70
2019-05-21T13:57:15.444Z,64.90
2019-05-21T14:02:21.513Z,71.40
2019-05-21T14:07:26.556Z,52.65
2019-05-21T14:12:37.969Z,60.40
2019-05-21T14:17:44.238Z,183.40
2019-05-21T14:22:53.967Z,111.70
2019-05-21T14:28:00.387Z,113.00
2019-05-21T14:33:06.862Z,207.30
2019-05-21T14:38:11.904Z,163.80
2019-05-21T14:43:16.964Z,112.70
2019-05-21T14:48:21.998Z,79.80
2019-05-21T14:53:27.059Z,132.50
2019-05-21T14:58:32.109Z,161.00
2019-05-21T15:03:37.150Z,78.30
2019-05-21T15:08:42.202Z,113.70
2019-05-21T15:13:47.250Z,162.70
2019-05-21T15:18:53.432Z,170.85
2019-05-21T15:23:58.478Z,164.00
2019-05-21T15:29:08.540Z,179.35
2019-05-21T15:34:13.821Z,241.90
2019-05-21T15:39:18.952Z,303.30
2019-05-21T15:44:24.001Z,284.10
2019-05-21T15:49:36.012Z,443.80
2019-05-21T15:54:36.485Z,404.90
2019-05-21T15:59:42.859Z,373.80
2019-05-21T16:04:49.610Z,351.15
2019-05-21T16:09:55.131Z,339.40
2019-05-21T16:15:00.138Z,327.30
2019-05-21T16:20:05.178Z,278.00
2019-05-21T16:25:10.231Z,235.50
2019-05-21T16:30:15.267Z,170.85
2019-05-21T16:35:20.314Z,122.60
2019-05-21T16:40:25.369Z,104.25
2019-05-21T16:45:30.548Z,84.70
2019-05-21T16:50:35.580Z,66.00
2019-05-21T16:55:40.614Z,47.30
2019-05-21T17:00:45.986Z,41.40
2019-05-21T17:06:03.018Z,34.10
2019-05-21T17:11:08.209Z,42.10
2019-05-21T17:16:13.526Z,105.95
2019-05-21T17:21:18.686Z,130.40
2019-05-21T17:26:24.275Z,172.90
2019-05-21T17:31:29.389Z,280.30
2019-05-21T17:36:34.690Z,269.80
2019-05-21T17:41:40.781Z,359.95
2019-05-21T17:46:46.010Z,635.05
2019-05-21T17:51:51.324Z,616.10
2019-05-21T17:56:56.598Z,557.35
2019-05-21T18:02:03.378Z,560.05
2019-05-21T18:07:10.876Z,536.80
2019-05-21T18:12:31.241Z,521.70
2019-05-21T18:17:24.863Z,492.80
2019-05-21T18:22:31.106Z,474.55
2019-05-21T18:27:37.779Z,453.25
2019-05-21T18:32:44.077Z,443.80
2019-05-21T18:37:53.490Z,498.00
2019-05-21T18:42:59.579Z,461.55
2019-05-21T18:48:04.818Z,556.50
2019-05-21T18:53:10.861Z,576.10
2019-05-21T18:58:17.795Z,624.10
2019-05-21T19:03:26.150Z,572.20
2019-05-21T19:08:29.791Z,617.60
2019-05-21T19:13:34.841Z,589.85
2019-05-21T19:18:40.498Z,707.65
2019-05-21T19:23:45.792Z,568.20
2019-05-21T19:28:51.754Z,576.20
2019-05-21T19:33:56.786Z,591.50
2019-05-21T19:39:01.826Z,675.70
2019-05-21T19:44:07.183Z,694.20
2019-05-21T19:49:12.258Z,662.70
2019-05-21T19:54:17.278Z,742.10
2019-05-21T19:59:23.088Z,672.40
2019-05-21T20:04:30.657Z,682.80
2019-05-21T20:09:37.151Z,658.60
2019-05-21T20:14:42.490Z,668.85
2019-05-21T20:19:48.479Z,715.10
2019-05-21T20:24:54.477Z,699.80
2019-05-21T20:30:12.338Z,692.00
2019-05-21T20:35:06.910Z,728.30
2019-05-21T20:40:13.697Z,739.90
2019-05-21T20:45:20.181Z,677.80
2019-05-21T20:50:26.509Z,729.55
2019-05-21T20:55:31.905Z,731.80
2019-05-21T21:00:44.946Z,737.70
2019-05-21T21:05:50.606Z,813.50
2019-05-21T21:10:55.640Z,894.10
2019-05-21T21:16:04.543Z,912.40
2019-05-21T21:21:11.461Z,839.95
2019-05-21T21:26:16.947Z,809.50
2019-05-21T21:31:22.221Z,744.00
2019-05-21T21:36:27.545Z,724.60
2019-05-21T21:41:32.828Z,609.10
2019-05-21T21:46:37.866Z,685.05
2019-05-21T21:51:42.917Z,577.60
2019-05-21T21:56:47.957Z,538.90
2019-05-21T22:01:53.009Z,526.00
2019-05-21T22:06:59.298Z,513.50
2019-05-21T22:12:04.374Z,653.35
2019-05-21T22:17:11.326Z,645.95
2019-05-21T22:22:16.691Z,624.20
2019-05-21T22:27:21.718Z,745.30
2019-05-21T22:32:27.403Z,671.85
2019-05-21T22:37:32.563Z,643.60
2019-05-21T22:42:38.028Z,548.10
2019-05-21T22:47:43.156Z,552.40
2019-05-21T22:52:48.228Z,390.05
2019-05-21T22:57:53.252Z,374.10
2019-05-21T23:02:58.312Z,374.40
2019-05-21T23:08:56.433Z,321.10
2019-05-21T23:14:01.468Z,256.55
2019-05-21T23:19:08.128Z,202.60
2019-05-21T23:24:14.732Z,201.40
2019-05-21T23:29:19.759Z,168.20
2019-05-21T23:34:24.823Z,141.50
2019-05-21T23:39:31.525Z,112.45
2019-05-21T23:44:36.705Z,112.00
2019-05-21T23:49:41.610Z,588.15
2019-05-21T23:54:46.643Z,527.50
2019-05-21T23:59:52.219Z,534.60
